Terminal Aerodrome Forecast
Issued by NWS Wilmington, OH

Home | Current Version | Previous Version | Text Only | Print | Product List | Glossary On
Versions: 1 2 3 4 5 6 7 8 9 10 11 12 13 14 15 16 17 18 19 20 21
000
FTUS41 KILN 191100
TAFCVG
TAF
KCVG 191131Z 1912/2018 04009KT P6SM SCT250
     FM191500 06010G18KT P6SM FEW035
     FM200000 06005KT P6SM SKC
     FM201500 14007KT P6SM FEW040 SCT250=

USA.gov is the U.S. government's official web portal to all federal, state and local government web resources and services.